ISW weather

Alexander Field South Wood County Airport
Wisconsin Rapids, Wisconsin, United States

Public forecast

Using degrees Fahrenheit for public forecast. Weather courtesy of forecast.io.

METAR (pilot weather report)

Retrieved 2019/08/17 20:54 UTC (46 minutes ago):

KISW 172054Z AUTO 14005KT 10SM CLR 27/16 A2986 RMK AO2 SLP106 T02670156 56016

TAF (pilot weather forecast)

Closest forecast is Central Wisconsin Airport, 26.1 nm (48.4 km) NNE. Retrieved 2019/08/17 18:22 UTC (3 hours ago):

TAF KCWA 171720Z 1718/1818 19004KT P6SM SCT040 FM180100 14004KT P6SM BKN250 FM180700 13005KT 5SM BR VCSH BKN080 TEMPO 1807/1811 3SM -TSRA BR SCT007 BKN014CB FM181100 14008KT 3SM SHRA BR BKN004 WS015/19035KT FM181600 21009G15KT 5SM SHRA BKN009